Time;durP1;ratioP1;P1;durP2;ratioP2;P2;SDS_P1;SDS_P2;PMS_P1;PMS_P2;Temp;Humidity;BMP_temperature;BMP_pressure;BME280_temperature;BME280_humidity;BME280_pressure;Samples;Min_cycle;Max_cycle;Signal;HPM_P1;HPM_P2
2023/06/16 00:02:07;;;;;;;9.50;7.50;;;;;;;18.45;100.00;100602.13;107398;1244;59010;-73
2023/06/16 00:04:36;;;;;;;10.00;8.30;;;;;;;18.43;100.00;100598.84;107499;1249;57461;-74
2023/06/16 00:07:06;;;;;;;12.60;8.20;;;;;;;18.37;100.00;100599.64;107403;1252;61444;-75
2023/06/16 00:09:36;;;;;;;10.00;8.30;;;;;;;18.29;100.00;100597.18;107512;1246;60967;-73
2023/06/16 00:12:06;;;;;;;12.90;7.80;;;;;;;18.22;100.00;100598.76;107488;1243;70448;-74
2023/06/16 00:14:35;;;;;;;10.30;7.80;;;;;;;18.18;100.00;100595.14;107428;1246;73676;-73
2023/06/16 00:17:05;;;;;;;13.50;9.00;;;;;;;18.12;100.00;100593.63;107256;1255;58962;-72
2023/06/16 00:19:34;;;;;;;10.10;8.50;;;;;;;18.07;100.00;100591.16;107270;1255;59098;-73
2023/06/16 00:22:04;;;;;;;9.00;7.70;;;;;;;18.03;100.00;100594.23;107285;1242;62161;-75
2023/06/16 00:24:32;;;;;;;9.10;7.60;;;;;;;17.97;100.00;100593.13;107337;1242;72578;-74
2023/06/16 00:27:02;;;;;;;11.20;8.10;;;;;;;17.91;100.00;100589.91;107370;1255;70421;-74
2023/06/16 00:29:30;;;;;;;9.60;7.80;;;;;;;17.87;100.00;100590.16;107277;1256;65555;-75
2023/06/16 00:31:59;;;;;;;11.50;8.60;;;;;;;17.86;100.00;100591.89;107239;1246;58144;-75
2023/06/16 00:34:29;;;;;;;11.00;7.90;;;;;;;17.84;100.00;100595.73;107250;1256;60410;-75
2023/06/16 00:36:58;;;;;;;12.30;8.50;;;;;;;17.85;100.00;100595.50;107075;1253;63098;-73
2023/06/16 00:39:27;;;;;;;10.60;8.00;;;;;;;17.83;100.00;100593.52;107108;1246;62474;-73
2023/06/16 00:41:56;;;;;;;11.90;8.00;;;;;;;17.82;100.00;100586.98;107094;1248;60061;-74
2023/06/16 00:44:25;;;;;;;9.90;7.40;;;;;;;17.78;100.00;100590.77;107184;1252;73228;-75
2023/06/16 00:46:54;;;;;;;9.20;7.60;;;;;;;17.70;100.00;100591.15;107052;1250;62415;-75
2023/06/16 00:49:25;;;;;;;11.60;8.40;;;;;;;17.65;100.00;100591.05;107122;1246;60732;-74
2023/06/16 00:51:55;;;;;;;11.40;8.20;;;;;;;17.63;100.00;100593.84;107025;1256;62725;-74
2023/06/16 00:54:26;;;;;;;10.60;8.30;;;;;;;17.60;100.00;100597.31;107106;1246;71346;-74
2023/06/16 00:56:55;;;;;;;12.50;8.80;;;;;;;17.58;100.00;100604.02;107020;1256;59031;-76
2023/06/16 00:59:27;;;;;;;12.20;8.50;;;;;;;17.58;100.00;100606.84;107117;1256;63263;-76
2023/06/16 01:01:55;;;;;;;11.60;8.00;;;;;;;17.60;100.00;100614.97;107251;1246;62060;-75
2023/06/16 01:04:26;;;;;;;14.00;10.20;;;;;;;17.62;100.00;100618.27;107140;1255;58227;-75
2023/06/16 01:07:55;;;;;;;12.80;9.30;;;;;;;17.68;100.00;100612.16;107131;1245;62437;-76
2023/06/16 01:10:48;;;;;;;11.80;9.20;;;;;;;17.71;100.00;100602.73;107284;1255;61395;-73
2023/06/16 01:13:26;;;;;;;14.00;9.60;;;;;;;17.71;100.00;100605.13;107225;1251;59192;-74
2023/06/16 01:16:02;;;;;;;13.40;9.60;;;;;;;17.72;100.00;100606.84;107265;1245;73875;-72
2023/06/16 01:18:33;;;;;;;10.80;9.20;;;;;;;17.74;100.00;100609.27;107091;1254;63250;-73
2023/06/16 01:21:20;;;;;;;15.90;9.90;;;;;;;17.75;100.00;100603.00;107033;1256;57543;-73
2023/06/16 01:24:14;;;;;;;13.00;10.00;;;;;;;17.74;100.00;100600.77;107134;1245;72714;-75
2023/06/16 01:26:49;;;;;;;13.30;9.70;;;;;;;17.73;100.00;100599.98;107238;1244;62929;-74
2023/06/16 01:29:23;;;;;;;13.40;10.10;;;;;;;17.69;100.00;100598.68;107233;1251;69673;-74
2023/06/16 01:31:57;;;;;;;13.90;9.50;;;;;;;17.66;100.00;100603.04;106879;1249;74487;-75
2023/06/16 01:34:27;;;;;;;13.60;10.10;;;;;;;17.64;100.00;100605.34;107145;1253;58760;-74
2023/06/16 01:36:58;;;;;;;12.20;9.80;;;;;;;17.63;100.00;100610.73;107324;1256;57385;-75
2023/06/16 01:39:29;;;;;;;11.60;9.30;;;;;;;17.62;100.00;100616.81;107406;1245;63882;-73
2023/06/16 01:42:00;;;;;;;14.30;9.70;;;;;;;17.60;100.00;100612.83;107394;1256;70746;-72
2023/06/16 01:44:32;;;;;;;13.00;10.10;;;;;;;17.58;100.00;100614.95;107144;1244;71028;-76
2023/06/16 01:47:00;;;;;;;13.90;9.70;;;;;;;17.56;100.00;100610.25;107183;1245;74123;-72
2023/06/16 01:49:29;;;;;;;13.40;9.80;;;;;;;17.51;100.00;100606.57;107193;1245;62548;-73
2023/06/16 01:51:58;;;;;;;12.80;9.70;;;;;;;17.48;100.00;100605.93;107175;1249;59127;-75
2023/06/16 01:54:29;;;;;;;13.20;9.90;;;;;;;17.45;100.00;100603.08;107286;1246;62205;-76
2023/06/16 01:56:58;;;;;;;12.80;10.00;;;;;;;17.42;100.00;100600.91;107210;1245;60927;-76
2023/06/16 01:59:27;;;;;;;12.00;9.40;;;;;;;17.39;100.00;100598.98;107367;1256;59200;-76
2023/06/16 02:02:04;;;;;;;12.90;9.50;;;;;;;17.36;100.00;100599.77;107356;1256;63279;-75
2023/06/16 02:04:39;;;;;;;14.70;9.70;;;;;;;17.32;100.00;100598.96;107399;1245;58718;-76
2023/06/16 02:07:18;;;;;;;14.20;10.40;;;;;;;17.31;100.00;100594.89;107248;1244;61309;-78
2023/06/16 02:09:49;;;;;;;10.90;8.70;;;;;;;17.28;100.00;100595.39;107068;1247;63774;-78
2023/06/16 02:12:18;;;;;;;13.00;9.40;;;;;;;17.28;100.00;100596.59;107005;1249;61650;-76
2023/06/16 02:14:49;;;;;;;13.30;9.80;;;;;;;17.31;100.00;100593.50;107258;1245;69026;-76
2023/06/16 02:17:19;;;;;;;12.30;9.10;;;;;;;17.37;100.00;100591.76;107176;1244;74223;-78
2023/06/16 02:19:55;;;;;;;11.70;9.70;;;;;;;17.42;100.00;100586.52;107222;1247;58982;-73
2023/06/16 02:22:23;;;;;;;11.70;9.40;;;;;;;17.46;100.00;100584.80;107439;1245;61577;-74
2023/06/16 02:24:54;;;;;;;14.80;9.10;;;;;;;17.51;100.00;100584.34;107192;1246;63710;-75
2023/06/16 02:27:23;;;;;;;11.70;9.40;;;;;;;17.59;100.00;100583.73;107086;1248;60944;-75
2023/06/16 02:29:52;;;;;;;12.50;9.50;;;;;;;17.57;100.00;100584.98;107045;1248;59971;-75
2023/06/16 02:32:21;;;;;;;14.90;9.80;;;;;;;17.53;100.00;100582.05;107102;1245;73765;-74
2023/06/16 02:34:52;;;;;;;13.00;9.80;;;;;;;17.50;100.00;100587.65;107193;1246;62291;-73
2023/06/16 02:37:25;;;;;;;13.30;9.80;;;;;;;17.46;100.00;100593.30;107401;1245;58940;-74
2023/06/16 02:39:56;;;;;;;16.30;10.60;;;;;;;17.46;100.00;100586.84;107259;1246;62188;-74
2023/06/16 02:42:25;;;;;;;15.80;9.90;;;;;;;17.45;100.00;100583.33;107234;1248;60833;-75
2023/06/16 02:44:54;;;;;;;13.80;9.80;;;;;;;17.50;100.00;100577.39;107272;1245;69507;-76
2023/06/16 02:47:23;;;;;;;13.20;9.60;;;;;;;17.56;100.00;100570.97;107469;1245;73603;-77
2023/06/16 02:49:54;;;;;;;13.00;9.40;;;;;;;17.58;100.00;100576.62;107176;1251;63290;-75
2023/06/16 02:52:23;;;;;;;12.90;9.50;;;;;;;17.60;100.00;100578.45;107317;1248;58997;-76
2023/06/16 02:54:52;;;;;;;13.70;9.90;;;;;;;17.73;100.00;100580.70;107496;1244;63934;-75
2023/06/16 02:57:26;;;;;;;12.30;9.80;;;;;;;17.78;100.00;100585.27;107495;1252;60963;-75
2023/06/16 02:59:55;;;;;;;13.00;9.30;;;;;;;17.80;100.00;100588.77;107344;1255;60361;-76
2023/06/16 03:02:24;;;;;;;16.10;10.80;;;;;;;17.84;100.00;100587.15;107355;1249;73815;-78
2023/06/16 03:04:58;;;;;;;12.50;9.40;;;;;;;17.86;100.00;100585.11;107491;1244;62493;-75
2023/06/16 03:07:33;;;;;;;12.00;9.60;;;;;;;17.93;100.00;100585.81;107438;1242;59361;-75
2023/06/16 03:10:07;;;;;;;11.70;9.20;;;;;;;18.04;100.00;100583.62;107561;1245;62659;-74
2023/06/16 03:12:49;;;;;;;13.00;10.10;;;;;;;18.08;100.00;100588.06;107505;1244;60984;-76
2023/06/16 03:15:19;;;;;;;14.50;10.00;;;;;;;18.12;100.00;100586.98;107498;1254;59197;-74
2023/06/16 03:17:48;;;;;;;13.80;9.70;;;;;;;18.21;100.00;100588.41;107329;1248;62461;-74
2023/06/16 03:20:17;;;;;;;12.80;9.40;;;;;;;18.40;100.00;100584.89;107442;1244;59063;-75
2023/06/16 03:22:52;;;;;;;15.50;10.20;;;;;;;18.53;100.00;100579.60;107299;1253;60407;-75
2023/06/16 03:25:22;;;;;;;15.00;10.20;;;;;;;18.48;100.00;100578.38;107440;1247;73334;-75
2023/06/16 03:27:50;;;;;;;13.70;9.00;;;;;;;18.57;100.00;100575.31;107581;1244;63167;-74
2023/06/16 03:30:22;;;;;;;11.50;8.70;;;;;;;18.65;100.00;100570.68;107519;1252;69176;-75
2023/06/16 03:33:11;;;;;;;10.60;7.70;;;;;;;18.78;100.00;100568.04;107579;1245;62959;-75
2023/06/16 03:35:43;;;;;;;9.50;8.50;;;;;;;18.91;100.00;100564.55;107569;1245;57451;-75
2023/06/16 03:38:22;;;;;;;10.50;7.40;;;;;;;19.00;100.00;100567.41;107795;1241;59045;-77
2023/06/16 03:40:52;;;;;;;8.20;6.90;;;;;;;19.12;100.00;100566.86;107639;1248;70893;-77
2023/06/16 03:43:21;;;;;;;11.40;8.00;;;;;;;19.21;100.00;100566.33;107362;1245;71951;-80
2023/06/16 03:45:50;;;;;;;10.10;7.10;;;;;;;19.32;100.00;100565.39;107627;1242;71007;-78
2023/06/16 03:48:20;;;;;;;9.20;7.40;;;;;;;19.42;100.00;100567.38;107573;1241;74245;-71
2023/06/16 03:50:53;;;;;;;12.50;9.40;;;;;;;19.50;100.00;100565.23;107523;1248;58339;-75
2023/06/16 03:53:23;;;;;;;7.50;6.50;;;;;;;19.66;100.00;100569.30;107483;1241;61234;-76
2023/06/16 03:55:52;;;;;;;10.10;7.70;;;;;;;19.77;100.00;100568.74;107299;1247;64036;-75
2023/06/16 03:58:24;;;;;;;8.20;6.90;;;;;;;19.85;100.00;100565.25;107463;1245;71409;-75
2023/06/16 04:00:53;;;;;;;7.70;6.80;;;;;;;19.94;100.00;100563.17;107439;1245;71040;-70
2023/06/16 04:03:25;;;;;;;11.00;7.10;;;;;;;20.03;100.00;100561.13;107323;1244;73657;-75
2023/06/16 04:05:55;;;;;;;9.50;7.00;;;;;;;20.00;100.00;100562.75;107278;1254;58462;-67
2023/06/16 04:08:25;;;;;;;10.00;7.10;;;;;;;20.04;100.00;100566.83;107352;1251;61557;-69
2023/06/16 04:10:57;;;;;;;8.60;6.90;;;;;;;20.07;100.00;100560.19;107330;1245;62974;-67
2023/06/16 04:13:27;;;;;;;14.80;7.10;;;;;;;20.09;100.00;100559.89;107385;1252;62209;-67
2023/06/16 04:15:57;;;;;;;8.80;6.80;;;;;;;20.24;100.00;100556.80;107354;1241;69653;-67
2023/06/16 04:18:26;;;;;;;7.90;6.30;;;;;;;20.14;100.00;100551.58;107311;1241;74733;-68
2023/06/16 04:20:55;;;;;;;10.60;7.40;;;;;;;20.26;100.00;100556.04;107397;1252;63338;-66
2023/06/16 04:23:24;;;;;;;9.50;7.30;;;;;;;20.27;100.00;100555.89;107368;1242;58914;-67
2023/06/16 04:25:53;;;;;;;9.40;7.40;;;;;;;20.41;100.00;100554.98;107343;1244;63561;-66
2023/06/16 04:28:24;;;;;;;9.60;7.30;;;;;;;20.49;100.00;100554.58;107306;1244;62424;-68
2023/06/16 04:30:56;;;;;;;10.50;7.50;;;;;;;20.53;100.00;100552.89;107389;1244;71193;-71
2023/06/16 04:33:27;;;;;;;10.40;8.00;;;;;;;20.59;100.00;100552.77;107114;1255;62898;-69
2023/06/16 04:35:57;;;;;;;9.40;7.30;;;;;;;20.63;100.00;100551.89;109586;1244;58338;-69
2023/06/16 04:38:26;;;;;;;9.90;6.70;;;;;;;20.66;100.00;100558.58;109550;1241;59594;-68
2023/06/16 04:40:56;;;;;;;9.40;7.20;;;;;;;20.71;100.00;100553.71;109601;1245;63757;-68
2023/06/16 04:43:26;;;;;;;15.40;7.60;;;;;;;20.88;100.00;100554.38;109605;1242;71586;-69
2023/06/16 04:45:57;;;;;;;9.00;7.30;;;;;;;20.97;100.00;100557.23;109620;1241;60894;-70
2023/06/16 04:48:27;;;;;;;10.10;7.00;;;;;;;20.79;100.00;100556.15;108636;1245;72551;-69
2023/06/16 04:50:57;;;;;;;12.30;7.40;;;;;;;20.89;100.00;100551.61;107381;1244;58901;-68
2023/06/16 04:53:27;;;;;;;10.80;7.80;;;;;;;21.14;100.00;100551.65;107383;1244;58897;-79
2023/06/16 04:55:56;;;;;;;11.20;7.40;;;;;;;21.19;100.00;100553.91;107346;1251;73389;-80
2023/06/16 04:58:26;;;;;;;10.60;6.50;;;;;;;21.28;100.00;100550.23;107548;1245;71786;-78
2023/06/16 05:00:55;;;;;;;10.80;7.20;;;;;;;21.35;100.00;100553.58;107278;1249;60151;-83
2023/06/16 05:03:24;;;;;;;16.00;7.20;;;;;;;21.50;100.00;100552.98;107459;1245;62506;-79
2023/06/16 05:05:54;;;;;;;9.00;7.20;;;;;;;21.65;100.00;100549.75;107963;1244;63099;-85
2023/06/16 05:08:22;;;;;;;10.80;7.00;;;;;;;21.55;100.00;100548.80;107649;1244;61594;-81
2023/06/16 05:10:51;;;;;;;12.50;7.30;;;;;;;21.72;100.00;100547.85;107371;1248;73895;-84
2023/06/16 05:13:20;;;;;;;11.10;6.90;;;;;;;21.63;100.00;100546.61;108719;1244;62171;-81
2023/06/16 05:15:49;;;;;;;13.40;7.80;;;;;;;21.60;100.00;100547.05;107914;1246;59205;-81
2023/06/16 05:18:18;;;;;;;10.30;7.30;;;;;;;21.75;100.00;100543.23;107504;1245;62454;-82
2023/06/16 05:20:47;;;;;;;10.40;7.60;;;;;;;21.89;100.00;100546.45;107350;1245;62928;-82
2023/06/16 05:23:17;;;;;;;9.90;7.00;;;;;;;22.02;100.00;100545.89;107525;1245;59006;-83
2023/06/16 05:25:46;;;;;;;9.80;7.00;;;;;;;22.23;100.00;100544.23;107410;1248;62149;-78
2023/06/16 05:28:15;;;;;;;9.60;6.80;;;;;;;22.30;100.00;100543.39;107516;1254;61605;-79
2023/06/16 05:30:44;;;;;;;13.40;6.70;;;;;;;22.29;100.00;100543.64;107484;1246;69964;-81
2023/06/16 05:33:13;;;;;;;10.30;6.90;;;;;;;22.35;100.00;100545.80;107448;1254;63869;-83
2023/06/16 05:35:42;;;;;;;9.80;6.70;;;;;;;22.38;100.00;100543.05;107293;1245;59045;-79
2023/06/16 05:38:11;;;;;;;11.50;7.20;;;;;;;22.44;100.00;100548.23;107339;1249;60450;-80
2023/06/16 05:40:40;;;;;;;10.80;7.00;;;;;;;22.58;100.00;100547.64;107340;1246;62732;-79
2023/06/16 05:43:09;;;;;;;10.50;7.40;;;;;;;22.59;100.00;100547.23;107056;1243;61706;-79
2023/06/16 05:45:39;;;;;;;10.30;6.60;;;;;;;22.58;100.00;100547.67;107193;1254;60416;-79
2023/06/16 05:48:09;;;;;;;9.70;6.40;;;;;;;22.64;100.00;100545.72;107258;1245;62500;-80
2023/06/16 05:50:40;;;;;;;8.80;6.30;;;;;;;22.79;100.00;100545.50;107301;1242;62104;-79
2023/06/16 05:53:09;;;;;;;11.40;6.50;;;;;;;23.08;100.00;100543.33;107273;1241;60169;-80
2023/06/16 05:55:40;;;;;;;9.10;6.70;;;;;;;23.19;100.00;100545.60;107358;1244;64158;-89
2023/06/16 06:21:52;;;;;;;10.20;7.50;;;;;;;23.92;96.55;100550.50;104838;1278;602081;-81
2023/06/16 06:24:21;;;;;;;11.90;7.40;;;;;;;23.98;95.27;100553.59;107448;1249;58963;-80
2023/06/16 06:26:50;;;;;;;11.40;7.70;;;;;;;23.84;96.32;100550.02;107379;1258;60332;-79
2023/06/16 06:29:20;;;;;;;12.80;8.50;;;;;;;23.74;97.21;100550.03;107515;1255;71107;-79
2023/06/16 06:31:48;;;;;;;7.70;6.60;;;;;;;23.68;96.36;100549.89;107241;1247;72755;-79
2023/06/16 06:34:17;;;;;;;9.10;6.60;;;;;;;23.94;94.70;100549.48;107209;1247;70295;-81
2023/06/16 06:36:47;;;;;;;7.90;6.40;;;;;;;24.02;94.17;100549.33;107895;1245;74530;-78
2023/06/16 06:39:17;;;;;;;10.20;7.30;;;;;;;24.16;91.84;100546.64;108313;1246;58920;-77
2023/06/16 06:41:46;;;;;;;12.20;7.70;;;;;;;24.17;92.10;100544.43;107896;1249;57601;-79
2023/06/16 06:44:18;;;;;;;11.20;7.10;;;;;;;24.17;92.07;100545.70;108345;1246;60532;-79
2023/06/16 06:46:49;;;;;;;10.50;6.00;;;;;;;24.38;90.83;100541.59;108547;1245;70346;-79
2023/06/16 06:49:19;;;;;;;8.20;6.10;;;;;;;24.49;89.98;100542.45;108303;1244;59222;-79
2023/06/16 06:51:48;;;;;;;8.80;7.00;;;;;;;24.45;91.45;100542.90;107801;1243;62494;-80
2023/06/16 06:54:17;;;;;;;9.50;6.80;;;;;;;24.57;90.54;100545.95;107608;1249;58254;-80
2023/06/16 06:56:46;;;;;;;10.50;7.30;;;;;;;24.65;90.43;100544.90;107749;1250;57522;-80
2023/06/16 06:59:15;;;;;;;11.10;7.30;;;;;;;24.68;90.22;100544.29;107714;1242;62170;-79
2023/06/16 07:01:44;;;;;;;10.20;6.20;;;;;;;24.66;89.93;100543.55;107721;1242;71384;-80
2023/06/16 07:04:14;;;;;;;11.40;7.10;;;;;;;24.70;90.08;100542.98;107502;1253;60376;-81
2023/06/16 07:06:44;;;;;;;13.60;6.70;;;;;;;24.82;88.42;100540.41;107725;1242;73822;-78
2023/06/16 07:09:13;;;;;;;7.80;6.50;;;;;;;24.80;86.77;100537.86;107797;1242;62059;-81
2023/06/16 07:11:57;;;;;;;8.50;6.10;;;;;;;24.67;87.34;100535.66;107864;1242;61575;-80
2023/06/16 07:14:26;;;;;;;10.70;6.50;;;;;;;24.71;86.86;100537.67;107644;1250;62552;-79
2023/06/16 07:16:57;;;;;;;9.30;6.90;;;;;;;24.70;86.90;100535.91;107698;1253;61389;-80
2023/06/16 07:19:26;;;;;;;8.60;6.90;;;;;;;24.78;87.02;100536.23;107630;1241;71410;-81
2023/06/16 07:21:56;;;;;;;12.40;7.50;;;;;;;24.72;87.36;100533.81;107552;1251;74400;-81
2023/06/16 07:24:25;;;;;;;12.10;7.30;;;;;;;24.98;87.21;100534.70;107744;1241;58759;-80
2023/06/16 07:26:54;;;;;;;10.70;7.20;;;;;;;25.23;86.15;100531.78;107622;1243;57497;-80
2023/06/16 07:29:23;;;;;;;11.40;7.20;;;;;;;25.46;83.55;100531.37;107598;1242;62081;-80
2023/06/16 07:31:52;;;;;;;10.00;7.10;;;;;;;25.70;82.89;100526.02;107531;1251;70876;-81
2023/06/16 07:34:21;;;;;;;8.20;6.50;;;;;;;25.97;83.72;100525.74;107532;1254;70223;-79
2023/06/16 07:36:49;;;;;;;8.50;6.80;;;;;;;25.94;81.62;100525.89;107603;1254;74102;-80
2023/06/16 07:39:18;;;;;;;10.20;6.90;;;;;;;25.99;81.60;100525.45;107496;1246;59048;-80
2023/06/16 07:41:47;;;;;;;10.20;6.90;;;;;;;26.01;81.63;100524.33;107592;1254;57466;-78
2023/06/16 07:44:16;;;;;;;12.30;7.60;;;;;;;25.93;80.50;100527.38;107555;1243;62148;-79
2023/06/16 07:46:45;;;;;;;12.00;7.00;;;;;;;25.54;81.92;100527.17;107644;1242;61593;-79
2023/06/16 07:49:14;;;;;;;13.70;8.20;;;;;;;25.60;82.12;100529.71;107584;1242;59924;-80
2023/06/16 07:51:43;;;;;;;11.40;7.30;;;;;;;25.64;81.94;100528.55;107553;1242;63179;-81
2023/06/16 07:54:12;;;;;;;11.20;7.90;;;;;;;25.68;81.42;100525.33;107594;1242;59113;-80
2023/06/16 07:56:41;;;;;;;10.30;7.30;;;;;;;25.61;81.34;100526.94;107658;1240;60530;-78
2023/06/16 07:59:09;;;;;;;13.20;7.40;;;;;;;25.76;79.99;100519.09;107534;1241;74297;-79
2023/06/16 08:01:38;;;;;;;11.30;7.40;;;;;;;26.07;79.07;100522.81;107557;1241;71774;-79
2023/06/16 08:04:08;;;;;;;15.70;7.80;;;;;;;26.26;69.99;100520.39;107651;1253;61271;-79
2023/06/16 08:06:39;;;;;;;10.20;7.30;;;;;;;26.41;65.69;100521.64;107676;1246;63559;-78
2023/06/16 08:09:10;;;;;;;11.70;7.90;;;;;;;26.61;65.36;100523.89;107583;1242;59182;-81
2023/06/16 08:11:38;;;;;;;9.70;7.70;;;;;;;26.62;64.40;100524.36;107590;1254;60350;-80
2023/06/16 08:14:07;;;;;;;9.50;7.40;;;;;;;26.42;64.40;100527.89;107631;1249;62330;-81
2023/06/16 08:16:36;;;;;;;20.20;7.90;;;;;;;26.53;64.35;100526.38;107557;1254;61635;-79
2023/06/16 08:19:06;;;;;;;14.70;8.20;;;;;;;26.52;63.69;100528.04;107524;1243;60311;-81
2023/06/16 08:21:37;;;;;;;13.10;7.70;;;;;;;26.42;63.34;100526.83;107526;1241;73730;-79
2023/06/16 08:24:06;;;;;;;12.80;8.00;;;;;;;26.69;62.43;100526.71;107499;1245;59117;-80
2023/06/16 08:26:35;;;;;;;13.50;7.40;;;;;;;26.90;62.73;100522.88;107440;1254;61608;-81
2023/06/16 08:29:06;;;;;;;11.70;7.20;;;;;;;27.10;62.15;100516.11;107397;1249;63054;-80
2023/06/16 08:31:35;;;;;;;10.20;7.20;;;;;;;27.19;62.30;100518.52;107359;1243;60856;-80
2023/06/16 08:34:04;;;;;;;10.00;7.10;;;;;;;27.26;62.13;100514.29;107355;1246;60929;-80
2023/06/16 08:36:33;;;;;;;9.50;7.90;;;;;;;27.19;61.90;100512.77;107413;1243;64828;-80
2023/06/16 08:39:02;;;;;;;8.70;6.10;;;;;;;27.17;62.07;100510.27;107412;1241;59080;-79
2023/06/16 08:41:32;;;;;;;10.00;7.50;;;;;;;27.38;61.57;100506.55;107362;1252;58348;-79
2023/06/16 08:44:04;;;;;;;9.20;7.00;;;;;;;27.53;61.32;100504.48;107427;1254;61802;-79
2023/06/16 08:46:32;;;;;;;14.30;7.30;;;;;;;27.66;61.05;100503.33;107332;1245;63342;-79
2023/06/16 08:49:04;;;;;;;12.10;7.00;;;;;;;27.65;60.66;100500.15;107309;1253;71490;-81
2023/06/16 08:51:34;;;;;;;11.60;8.00;;;;;;;27.66;60.72;100496.80;107610;1242;65451;-80
2023/06/16 08:54:09;;;;;;;9.40;7.20;;;;;;;27.77;59.87;100492.70;107581;1242;59103;-79
2023/06/16 08:56:39;;;;;;;10.40;6.60;;;;;;;27.64;60.26;100487.30;107503;1241;61215;-80
2023/06/16 08:59:11;;;;;;;12.10;7.60;;;;;;;27.75;60.26;100482.95;107562;1248;73028;-79
2023/06/16 09:01:40;;;;;;;10.00;7.30;;;;;;;27.89;59.93;100481.67;107554;1249;71427;-81
2023/06/16 09:04:10;;;;;;;12.50;6.80;;;;;;;27.98;59.82;100474.29;107543;1246;61536;-80
2023/06/16 09:13:42;;;;;;;11.30;6.70;;;;;;;28.12;59.11;100461.47;104609;1270;606028;-78
2023/06/16 09:16:16;;;;;;;8.30;7.40;;;;;;;28.00;58.78;100465.21;106368;1258;60577;-80
2023/06/16 09:24:24;;;;;;;11.70;7.40;;;;;;;28.29;56.80;100455.60;106384;1256;62619;-80
2023/06/16 09:26:52;;;;;;;8.10;6.20;;;;;;;28.14;57.26;100452.97;106449;1256;440319;-78
2023/06/16 09:29:23;;;;;;;11.10;7.00;;;;;;;28.29;56.85;100458.23;106977;1244;60117;-78
2023/06/16 09:31:53;;;;;;;8.60;6.60;;;;;;;28.36;56.75;100455.60;107196;1245;63242;-80
